Time;durP1;ratioP1;P1;durP2;ratioP2;P2;SDS_P1;SDS_P2;PMS_P1;PMS_P2;Temp;Humidity;BMP_temperature;BMP_pressure;BME280_temperature;BME280_humidity;BME280_pressure;Samples;Min_cycle;Max_cycle;Signal;HPM_P1;HPM_P2
2020/12/20 00:00:22;;;;;;;5.75;4.50;;;10.30;99.90;;;;;;5036936;28;20184;-86
2020/12/20 00:02:50;;;;;;;9.25;5.18;;;10.10;99.90;;;;;;5037967;28;20659;-86
2020/12/20 00:05:17;;;;;;;5.45;4.85;;;10.20;99.90;;;;;;5022787;28;20243;-86
2020/12/20 00:07:43;;;;;;;7.43;6.05;;;10.10;99.90;;;;;;5030886;28;20600;-86
2020/12/20 00:10:10;;;;;;;15.23;10.52;;;10.10;99.90;;;;;;5035558;28;20189;-86
2020/12/20 00:12:36;;;;;;;14.13;7.80;;;10.10;99.90;;;;;;5036036;28;20187;-86
2020/12/20 00:15:04;;;;;;;8.50;6.60;;;10.00;99.90;;;;;;5035429;28;20231;-86
2020/12/20 00:17:31;;;;;;;8.15;4.45;;;10.00;99.90;;;;;;5035797;28;20185;-86
2020/12/20 00:19:57;;;;;;;8.23;5.50;;;10.00;99.90;;;;;;5035636;28;20192;-86
2020/12/20 00:22:23;;;;;;;8.45;5.03;;;9.90;99.90;;;;;;5035722;28;20189;-86
2020/12/20 00:24:50;;;;;;;6.78;4.05;;;9.90;99.90;;;;;;5035128;28;20189;-86
2020/12/20 00:27:16;;;;;;;4.97;3.90;;;9.90;99.90;;;;;;5034309;28;20188;-86
2020/12/20 00:29:43;;;;;;;5.18;4.05;;;10.00;99.90;;;;;;5035237;28;20284;-85
2020/12/20 00:32:11;;;;;;;8.43;5.50;;;10.20;99.90;;;;;;5034723;28;20180;-86
2020/12/20 00:34:39;;;;;;;4.97;4.38;;;10.20;99.90;;;;;;5035284;28;20235;-85
2020/12/20 00:37:07;;;;;;;4.95;3.70;;;10.30;99.90;;;;;;5034698;28;20263;-86
2020/12/20 00:39:33;;;;;;;4.82;4.07;;;10.20;99.90;;;;;;5035280;28;20269;-85
2020/12/20 00:42:01;;;;;;;6.07;4.13;;;10.30;99.90;;;;;;5035098;28;20185;-85
2020/12/20 00:44:28;;;;;;;4.80;3.35;;;10.30;99.90;;;;;;5035285;28;20188;-85
2020/12/20 00:46:55;;;;;;;7.75;3.33;;;10.40;99.90;;;;;;5034857;28;20207;-85
2020/12/20 00:49:23;;;;;;;6.88;4.38;;;10.40;99.90;;;;;;5034982;28;20188;-85
2020/12/20 00:51:49;;;;;;;7.00;4.05;;;10.40;99.90;;;;;;5034278;28;20185;-85
2020/12/20 00:54:16;;;;;;;5.95;3.75;;;10.40;99.90;;;;;;5035036;28;20250;-85
2020/12/20 00:56:43;;;;;;;5.43;3.78;;;10.40;99.90;;;;;;5033219;28;20680;-85
2020/12/20 00:59:09;;;;;;;4.95;3.60;;;10.40;99.90;;;;;;5034480;28;20212;-84
2020/12/20 01:01:35;;;;;;;14.63;7.55;;;10.40;99.90;;;;;;5034047;28;20696;-86
2020/12/20 01:04:02;;;;;;;6.22;4.80;;;10.30;99.90;;;;;;5034346;28;20544;-86
2020/12/20 01:06:29;;;;;;;5.70;4.40;;;10.30;99.90;;;;;;5032011;28;20189;-86
2020/12/20 01:08:56;;;;;;;31.65;17.83;;;10.30;99.90;;;;;;5035339;28;20283;-86
2020/12/20 01:11:22;;;;;;;58.20;31.23;;;10.20;99.90;;;;;;5034891;28;20714;-86
2020/12/20 01:13:49;;;;;;;20.98;11.18;;;10.30;99.90;;;;;;5035087;28;20224;-85
2020/12/20 01:16:16;;;;;;;29.08;14.38;;;10.30;99.90;;;;;;5033246;28;20603;-86
2020/12/20 01:18:42;;;;;;;14.82;10.00;;;10.20;99.90;;;;;;5034461;28;20200;-86
2020/12/20 01:21:09;;;;;;;13.27;6.93;;;10.30;99.90;;;;;;5033654;28;20188;-86
2020/12/20 01:23:36;;;;;;;7.70;5.60;;;10.30;99.90;;;;;;5034159;28;20192;-85
2020/12/20 01:26:03;;;;;;;5.00;4.05;;;10.40;99.90;;;;;;5033964;28;20184;-84
2020/12/20 01:28:29;;;;;;;5.20;3.72;;;10.40;99.90;;;;;;5034846;28;20181;-86
2020/12/20 01:30:56;;;;;;;9.40;7.53;;;10.40;99.90;;;;;;5034610;28;20227;-86
2020/12/20 01:33:23;;;;;;;5.72;3.70;;;10.40;99.90;;;;;;5034117;28;20181;-86
2020/12/20 01:35:49;;;;;;;9.65;4.50;;;10.40;99.90;;;;;;5033858;28;20679;-86
2020/12/20 01:38:16;;;;;;;5.10;3.90;;;10.50;99.90;;;;;;5032929;28;20663;-86
2020/12/20 01:40:50;;;;;;;9.02;4.05;;;10.50;99.90;;;;;;5034178;28;20185;-86
2020/12/20 01:43:16;;;;;;;6.50;4.22;;;10.40;99.90;;;;;;5033574;28;20218;-86
2020/12/20 01:45:42;;;;;;;9.18;5.00;;;10.50;99.90;;;;;;5034071;28;20192;-86
2020/12/20 01:48:10;;;;;;;4.60;3.13;;;10.50;99.90;;;;;;5033959;28;20189;-85
2020/12/20 01:50:37;;;;;;;5.22;3.45;;;10.50;99.90;;;;;;5034136;28;20189;-86
2020/12/20 01:53:04;;;;;;;6.00;4.50;;;10.40;99.90;;;;;;5033427;28;20645;-86
2020/12/20 01:55:31;;;;;;;5.25;3.80;;;10.40;99.90;;;;;;5033857;28;20216;-86
2020/12/20 01:57:59;;;;;;;5.28;3.30;;;10.30;99.90;;;;;;5033738;28;20185;-85
2020/12/20 02:00:25;;;;;;;7.10;5.20;;;10.40;99.90;;;;;;5033719;28;20637;-86
2020/12/20 02:02:51;;;;;;;5.05;3.67;;;10.30;99.90;;;;;;5033376;28;20203;-85
2020/12/20 02:05:18;;;;;;;11.60;7.00;;;10.20;99.90;;;;;;5034002;28;20180;-86
2020/12/20 02:07:46;;;;;;;24.10;18.10;;;10.20;99.90;;;;;;5034824;28;20655;-86
2020/12/20 02:10:16;;;;;;;12.40;7.90;;;10.20;99.90;;;;;;5040208;28;20897;-86
2020/12/20 02:12:42;;;;;;;9.25;6.13;;;10.20;99.90;;;;;;5039679;28;20196;-86
2020/12/20 02:15:10;;;;;;;14.38;10.23;;;10.20;99.90;;;;;;5039209;28;20220;-85
2020/12/20 02:17:36;;;;;;;8.13;4.65;;;10.20;99.90;;;;;;5040395;28;20679;-86
2020/12/20 02:20:04;;;;;;;5.38;4.00;;;10.20;99.90;;;;;;5039585;28;20197;-86
2020/12/20 02:22:32;;;;;;;6.32;4.55;;;10.20;99.90;;;;;;5040213;28;20189;-86
2020/12/20 02:24:59;;;;;;;7.32;4.75;;;10.30;99.90;;;;;;5040406;28;20192;-86
2020/12/20 02:27:25;;;;;;;7.10;4.40;;;10.30;99.90;;;;;;5040620;28;20184;-86
2020/12/20 02:29:51;;;;;;;7.75;5.53;;;10.30;99.90;;;;;;5040330;28;20181;-85
2020/12/20 02:32:18;;;;;;;7.35;4.65;;;10.30;99.90;;;;;;5041106;28;20185;-86
2020/12/20 02:34:44;;;;;;;8.50;4.53;;;10.30;99.90;;;;;;5040037;28;20208;-85
2020/12/20 02:37:10;;;;;;;7.13;4.28;;;10.30;99.90;;;;;;5040795;28;20216;-85
2020/12/20 02:39:40;;;;;;;5.50;4.43;;;10.30;99.90;;;;;;5040969;28;20185;-86
2020/12/20 02:42:06;;;;;;;6.55;4.20;;;10.30;99.90;;;;;;5042988;28;20199;-86
2020/12/20 02:44:33;;;;;;;6.55;4.75;;;10.30;99.90;;;;;;5043750;28;20183;-85
2020/12/20 02:46:59;;;;;;;5.18;4.43;;;10.30;99.90;;;;;;5044702;28;20248;-86
2020/12/20 02:49:25;;;;;;;6.25;5.03;;;10.30;99.90;;;;;;5044234;28;20694;-85
2020/12/20 02:51:52;;;;;;;6.18;4.47;;;10.30;99.90;;;;;;5044304;28;20189;-85
2020/12/20 02:54:18;;;;;;;5.38;4.18;;;10.30;99.90;;;;;;5044021;28;20189;-86
2020/12/20 02:56:45;;;;;;;9.20;4.65;;;10.30;99.90;;;;;;5045172;28;20223;-85
2020/12/20 02:59:12;;;;;;;7.00;4.47;;;10.30;99.90;;;;;;5041469;28;20279;-86
2020/12/20 03:01:38;;;;;;;4.65;4.05;;;10.30;99.90;;;;;;5044767;28;20211;-87
2020/12/20 03:04:04;;;;;;;4.78;3.97;;;10.30;99.90;;;;;;5042750;28;20185;-86
2020/12/20 03:06:30;;;;;;;8.48;4.30;;;10.20;99.90;;;;;;5045060;28;20185;-86
2020/12/20 03:08:57;;;;;;;6.22;4.15;;;10.20;99.90;;;;;;5040751;28;20227;-85
2020/12/20 03:11:23;;;;;;;6.63;5.05;;;10.10;99.90;;;;;;5042177;28;20189;-85
2020/12/20 03:13:50;;;;;;;5.30;4.80;;;10.10;99.90;;;;;;5039298;28;20227;-86
2020/12/20 03:16:17;;;;;;;6.40;4.18;;;10.10;99.90;;;;;;5040269;28;20212;-85
2020/12/20 03:18:46;;;;;;;7.80;5.15;;;10.00;99.90;;;;;;5041933;28;20185;-86
2020/12/20 03:21:12;;;;;;;7.45;4.68;;;10.00;99.90;;;;;;5037635;28;20192;-86
2020/12/20 03:23:38;;;;;;;6.15;4.80;;;10.00;99.90;;;;;;5036496;28;20200;-86
2020/12/20 03:26:06;;;;;;;8.13;5.20;;;10.00;99.90;;;;;;5037758;28;20184;-86
2020/12/20 03:28:33;;;;;;;6.50;4.85;;;10.00;99.90;;;;;;5038550;28;20188;-85
2020/12/20 03:31:00;;;;;;;6.75;4.47;;;10.00;99.90;;;;;;5037849;28;20231;-85
2020/12/20 03:33:26;;;;;;;10.25;5.20;;;10.00;99.90;;;;;;5036026;28;20204;-86
2020/12/20 03:35:53;;;;;;;7.38;4.95;;;10.00;99.90;;;;;;5035230;28;20209;-86
2020/12/20 03:38:19;;;;;;;8.88;5.45;;;10.00;99.90;;;;;;5036190;28;20207;-85
2020/12/20 03:40:45;;;;;;;5.90;4.35;;;10.00;99.90;;;;;;5035008;28;20188;-86
2020/12/20 03:43:11;;;;;;;10.18;4.95;;;9.90;99.90;;;;;;5035493;28;20203;-86
2020/12/20 03:45:38;;;;;;;6.75;5.10;;;9.90;99.90;;;;;;5034826;28;20188;-87
2020/12/20 03:48:05;;;;;;;6.20;4.20;;;9.80;99.90;;;;;;5036049;28;20635;-86
2020/12/20 03:50:32;;;;;;;7.18;6.15;;;9.80;99.90;;;;;;5034977;28;20184;-86
2020/12/20 03:52:58;;;;;;;7.18;4.55;;;9.80;99.90;;;;;;5035773;28;20193;-86
2020/12/20 03:55:25;;;;;;;6.72;5.40;;;9.80;99.90;;;;;;5035239;28;20188;-86
2020/12/20 03:57:51;;;;;;;5.15;4.47;;;9.80;99.90;;;;;;5035701;28;20671;-86
2020/12/20 04:00:17;;;;;;;7.82;5.47;;;9.70;99.90;;;;;;5035163;28;20202;-86
2020/12/20 04:02:43;;;;;;;6.90;5.05;;;9.70;99.90;;;;;;5035006;28;20188;-85
2020/12/20 04:05:11;;;;;;;5.80;5.05;;;9.70;99.90;;;;;;5036143;28;20648;-85
2020/12/20 04:07:37;;;;;;;6.20;4.93;;;9.60;99.90;;;;;;5034895;28;20536;-86
2020/12/20 04:10:03;;;;;;;5.72;4.30;;;9.60;99.90;;;;;;5035546;28;20608;-85
2020/12/20 04:12:30;;;;;;;5.85;4.95;;;9.60;99.90;;;;;;5035924;28;20267;-86
2020/12/20 04:14:56;;;;;;;6.63;5.07;;;9.60;99.90;;;;;;5034657;28;20224;-84
2020/12/20 04:17:22;;;;;;;9.05;5.88;;;9.50;99.90;;;;;;5035058;28;20216;-85
2020/12/20 04:19:49;;;;;;;8.48;5.20;;;9.50;99.90;;;;;;5034814;28;20189;-85
2020/12/20 04:22:16;;;;;;;7.60;4.78;;;9.40;99.90;;;;;;5034956;28;20266;-85
2020/12/20 04:24:42;;;;;;;6.18;4.18;;;9.30;99.90;;;;;;5034827;28;20196;-85
2020/12/20 04:27:08;;;;;;;10.27;5.20;;;9.20;99.90;;;;;;5035330;28;20219;-85
2020/12/20 04:29:35;;;;;;;5.85;4.47;;;9.20;99.90;;;;;;5034807;28;20189;-86
2020/12/20 04:32:03;;;;;;;5.78;4.97;;;9.20;99.90;;;;;;5033644;28;20240;-85
2020/12/20 04:34:29;;;;;;;5.97;5.43;;;9.10;99.90;;;;;;5035769;28;20181;-85
2020/12/20 04:36:55;;;;;;;6.78;4.63;;;9.10;99.90;;;;;;5036737;28;20223;-85
2020/12/20 04:39:22;;;;;;;7.13;4.65;;;9.10;99.90;;;;;;5037026;28;20177;-85
2020/12/20 04:41:49;;;;;;;6.82;5.65;;;9.10;99.90;;;;;;5036283;28;20580;-86
2020/12/20 04:44:15;;;;;;;7.20;4.70;;;9.10;99.90;;;;;;5034295;28;20220;-85
2020/12/20 04:46:42;;;;;;;5.97;4.35;;;9.10;99.90;;;;;;5034575;28;20180;-85
2020/12/20 04:49:09;;;;;;;5.15;4.28;;;9.00;99.90;;;;;;5034232;28;20234;-85
2020/12/20 04:51:37;;;;;;;7.00;4.47;;;9.10;99.90;;;;;;5034349;28;20197;-85
2020/12/20 04:54:03;;;;;;;6.95;5.18;;;9.10;99.90;;;;;;5034402;28;20207;-85
2020/12/20 04:56:36;;;;;;;5.63;5.03;;;9.10;99.90;;;;;;5034192;28;20258;-85
2020/12/20 04:59:05;;;;;;;7.40;5.00;;;9.10;99.90;;;;;;5016759;28;20537;-85
2020/12/20 05:01:32;;;;;;;6.57;4.72;;;9.10;99.90;;;;;;5034754;28;20189;-85
2020/12/20 05:03:58;;;;;;;5.78;5.10;;;9.20;99.90;;;;;;5034448;28;20180;-85
2020/12/20 05:06:27;;;;;;;5.47;4.93;;;9.20;99.90;;;;;;5034942;28;20189;-85
2020/12/20 05:08:59;;;;;;;7.10;4.82;;;9.20;99.90;;;;;;5034553;28;20193;-86
2020/12/20 05:11:33;;;;;;;6.57;5.10;;;9.20;99.90;;;;;;5031891;28;20200;-86
2020/12/20 05:14:00;;;;;;;6.57;4.63;;;9.20;99.90;;;;;;5015325;28;20223;-86
2020/12/20 05:16:34;;;;;;;5.93;4.03;;;9.20;99.90;;;;;;5031477;28;20267;-85
2020/12/20 05:19:02;;;;;;;5.40;4.82;;;9.20;99.90;;;;;;5034443;28;20184;-86
2020/12/20 05:21:29;;;;;;;7.70;4.88;;;9.30;99.90;;;;;;5040256;28;20180;-85
2020/12/20 05:23:56;;;;;;;5.72;4.95;;;9.30;99.90;;;;;;5042941;28;20184;-85
2020/12/20 05:26:30;;;;;;;8.02;4.80;;;9.30;99.90;;;;;;5038403;28;20185;-85
2020/12/20 05:29:11;;;;;;;9.48;5.97;;;9.30;99.90;;;;;;5033579;28;20192;-86
2020/12/20 05:31:38;;;;;;;6.45;5.47;;;9.30;99.90;;;;;;5034114;28;20200;-85
2020/12/20 05:34:05;;;;;;;8.15;5.53;;;9.30;99.90;;;;;;5033447;28;20591;-85
2020/12/20 05:36:32;;;;;;;9.50;5.35;;;9.40;99.90;;;;;;5042542;28;20217;-86
2020/12/20 05:39:12;;;;;;;6.97;4.85;;;9.40;99.90;;;;;;5033941;28;20568;-85
2020/12/20 05:41:39;;;;;;;8.30;6.38;;;9.40;99.90;;;;;;5034227;28;20200;-85
2020/12/20 05:44:15;;;;;;;11.52;6.05;;;9.30;99.90;;;;;;5033219;28;20553;-85
2020/12/20 05:46:43;;;;;;;10.05;6.10;;;9.40;99.90;;;;;;5033837;28;20640;-85
2020/12/20 05:49:14;;;;;;;8.23;5.93;;;9.30;99.90;;;;;;5033554;28;20640;-85
2020/12/20 05:52:04;;;;;;;10.63;6.25;;;9.30;99.90;;;;;;5034251;28;20196;-85
2020/12/20 05:54:32;;;;;;;5.50;4.90;;;9.30;99.90;;;;;;5033122;28;20199;-85
2020/12/20 05:57:12;;;;;;;6.05;4.95;;;9.30;99.90;;;;;;5033862;28;20212;-85
2020/12/20 05:59:41;;;;;;;6.45;5.22;;;9.30;99.90;;;;;;5033826;28;20644;-86
2020/12/20 06:02:07;;;;;;;6.10;5.15;;;9.30;99.90;;;;;;5033725;28;20197;-86
2020/12/20 06:04:35;;;;;;;7.22;4.90;;;9.40;99.90;;;;;;5033475;28;20656;-86
2020/12/20 06:07:01;;;;;;;10.60;6.45;;;9.30;99.90;;;;;;5032947;28;20196;-86
2020/12/20 06:09:29;;;;;;;9.73;6.25;;;9.30;99.90;;;;;;5033829;28;20189;-86
2020/12/20 06:11:57;;;;;;;7.68;5.53;;;9.30;99.90;;;;;;5032985;28;20199;-86
2020/12/20 06:14:25;;;;;;;6.93;5.40;;;9.30;99.90;;;;;;5032822;28;20568;-86
2020/12/20 06:17:15;;;;;;;7.20;6.22;;;9.40;99.90;;;;;;5033327;28;20216;-86
2020/12/20 06:19:56;;;;;;;6.95;5.05;;;9.30;99.90;;;;;;5033580;28;20189;-87
2020/12/20 06:22:28;;;;;;;11.95;5.93;;;9.30;99.90;;;;;;5033614;28;20635;-86
2020/12/20 06:24:56;;;;;;;7.93;6.15;;;9.30;99.90;;;;;;5033525;28;20189;-89
2020/12/20 06:27:24;;;;;;;7.53;6.00;;;9.30;99.90;;;;;;5020311;28;20189;-87
2020/12/20 06:29:53;;;;;;;8.38;5.32;;;9.30;99.90;;;;;;5033858;28;20185;-87
2020/12/20 06:32:35;;;;;;;6.68;5.97;;;9.30;99.90;;;;;;5033492;28;20189;-87
2020/12/20 06:35:13;;;;;;;10.82;6.22;;;9.40;99.90;;;;;;5033370;28;20181;-86
2020/12/20 06:37:41;;;;;;;7.03;5.97;;;9.40;99.90;;;;;;5032944;28;20211;-87
2020/12/20 06:40:08;;;;;;;7.63;6.38;;;9.40;99.90;;;;;;5033507;28;20199;-87
2020/12/20 06:42:36;;;;;;;7.25;6.55;;;9.50;99.90;;;;;;5034157;28;20181;-87
2020/12/20 06:45:19;;;;;;;7.43;5.78;;;9.50;99.90;;;;;;5024936;28;20220;-87
2020/12/20 06:47:48;;;;;;;7.10;5.80;;;9.50;99.90;;;;;;5020783;28;20275;-87
2020/12/20 06:50:35;;;;;;;8.88;6.13;;;9.50;99.90;;;;;;5033080;28;20389;-87
2020/12/20 06:53:01;;;;;;;7.63;6.05;;;9.50;99.90;;;;;;5034358;28;20185;-87
2020/12/20 06:55:28;;;;;;;12.93;7.72;;;9.50;99.90;;;;;;5035546;28;20276;-87
2020/12/20 06:58:14;;;;;;;8.70;6.43;;;9.50;99.90;;;;;;5037475;28;20278;-87
2020/12/20 07:00:42;;;;;;;7.50;6.70;;;9.40;99.90;;;;;;5036106;28;20195;-88
2020/12/20 07:03:10;;;;;;;9.80;7.57;;;9.40;99.90;;;;;;5037634;28;20319;-88
2020/12/20 07:05:41;;;;;;;7.72;6.53;;;9.40;99.90;;;;;;5039898;28;20231;-89
2020/12/20 07:08:19;;;;;;;7.85;6.63;;;9.40;99.90;;;;;;5042229;28;20219;-89
2020/12/20 07:10:48;;;;;;;8.02;5.65;;;9.40;99.90;;;;;;5042380;28;20196;-88
2020/12/20 07:13:16;;;;;;;7.35;6.55;;;9.40;99.90;;;;;;5019040;28;20634;-88
2020/12/20 07:15:51;;;;;;;8.18;7.18;;;9.40;99.90;;;;;;5024640;28;20186;-86
2020/12/20 07:18:41;;;;;;;8.02;6.97;;;9.40;99.90;;;;;;5039990;28;20187;-86
2020/12/20 07:21:10;;;;;;;7.45;6.65;;;9.40;99.90;;;;;;5045742;28;20185;-88
2020/12/20 07:23:40;;;;;;;9.43;6.45;;;9.30;99.90;;;;;;5041088;28;20188;-87
2020/12/20 07:26:07;;;;;;;8.07;6.93;;;9.30;99.90;;;;;;5042761;28;20191;-88
2020/12/20 07:28:33;;;;;;;9.07;7.35;;;9.30;99.90;;;;;;5040378;28;20193;-87
2020/12/20 07:31:00;;;;;;;12.05;7.38;;;9.20;99.90;;;;;;5039341;28;20189;-87
2020/12/20 07:33:26;;;;;;;9.00;6.90;;;9.20;99.90;;;;;;5041400;28;20548;-89
2020/12/20 07:35:53;;;;;;;9.38;6.97;;;8.90;99.90;;;;;;5043861;28;20193;-89
2020/12/20 07:38:21;;;;;;;8.90;7.45;;;9.30;99.90;;;;;;5049173;28;20185;-88
2020/12/20 07:40:50;;;;;;;7.57;6.78;;;9.00;99.90;;;;;;5048487;28;20189;-87
2020/12/20 07:43:20;;;;;;;9.70;7.05;;;8.90;99.90;;;;;;5048266;28;20188;-88
2020/12/20 07:45:58;;;;;;;9.75;7.45;;;8.90;99.90;;;;;;5048077;28;20201;-89
2020/12/20 07:48:25;;;;;;;8.95;7.47;;;8.90;99.90;;;;;;5047172;28;20645;-90
2020/12/20 07:51:06;;;;;;;9.15;7.60;;;8.90;99.90;;;;;;5043020;28;20193;-89
2020/12/20 07:53:33;;;;;;;8.13;6.78;;;8.90;99.90;;;;;;5044982;28;20271;-89
2020/12/20 07:56:00;;;;;;;10.10;7.95;;;9.10;99.90;;;;;;5043441;28;20323;-88
2020/12/20 07:58:30;;;;;;;8.05;6.40;;;8.90;99.90;;;;;;5046876;28;20192;-89
2020/12/20 08:01:03;;;;;;;7.50;6.80;;;8.90;99.90;;;;;;5040040;28;20276;-87
2020/12/20 08:03:29;;;;;;;8.88;7.03;;;8.90;99.90;;;;;;5037828;28;20533;-88
2020/12/20 08:06:06;;;;;;;9.30;7.90;;;8.90;99.90;;;;;;5039202;28;20185;-87
2020/12/20 08:08:32;;;;;;;11.93;6.55;;;8.90;99.90;;;;;;5038513;28;20215;-88
2020/12/20 08:11:03;;;;;;;9.25;8.27;;;8.90;99.90;;;;;;5041181;28;20201;-86
2020/12/20 08:13:30;;;;;;;9.32;7.00;;;8.90;99.90;;;;;;5037351;28;20568;-86
2020/12/20 08:15:56;;;;;;;9.90;7.65;;;8.90;99.90;;;;;;5037436;28;20219;-88
2020/12/20 08:18:23;;;;;;;9.25;7.45;;;8.90;99.90;;;;;;5020459;28;20197;-85
2020/12/20 08:20:50;;;;;;;9.50;7.38;;;8.90;99.90;;;;;;5027676;28;20188;-84
2020/12/20 08:23:18;;;;;;;8.63;7.13;;;9.10;99.90;;;;;;5035797;28;20239;-86
2020/12/20 08:25:44;;;;;;;11.02;6.82;;;9.10;99.90;;;;;;5035715;28;20584;-86
2020/12/20 08:28:10;;;;;;;8.82;6.20;;;9.10;99.90;;;;;;5035629;28;20189;-85
2020/12/20 08:30:38;;;;;;;9.93;6.88;;;9.20;99.90;;;;;;5035414;28;20242;-84
2020/12/20 08:33:04;;;;;;;12.70;8.00;;;9.20;99.90;;;;;;5038165;28;20254;-86
2020/12/20 08:35:30;;;;;;;8.45;6.20;;;9.20;99.90;;;;;;5035486;28;20177;-85
2020/12/20 08:37:59;;;;;;;8.38;6.90;;;9.20;99.90;;;;;;5045930;28;20223;-86
2020/12/20 08:40:31;;;;;;;11.20;7.88;;;9.20;99.90;;;;;;5043978;28;20200;-85
2020/12/20 08:42:58;;;;;;;7.57;6.78;;;9.20;99.90;;;;;;5043134;28;20668;-84
2020/12/20 08:45:28;;;;;;;6.18;5.57;;;9.30;99.90;;;;;;5051275;28;20560;-87
2020/12/20 08:48:00;;;;;;;10.13;6.72;;;9.30;99.90;;;;;;5044676;28;20188;-84
2020/12/20 08:50:29;;;;;;;6.65;5.95;;;9.50;99.90;;;;;;5044778;28;20185;-85
2020/12/20 08:53:00;;;;;;;5.82;5.10;;;9.40;99.90;;;;;;5044300;28;20189;-85
2020/12/20 08:55:27;;;;;;;7.60;5.50;;;9.50;99.90;;;;;;5046360;28;20230;-85
2020/12/20 08:58:04;;;;;;;10.00;6.28;;;9.40;99.90;;;;;;5029230;28;20704;-85
2020/12/20 09:00:31;;;;;;;8.30;5.25;;;9.50;99.90;;;;;;5045285;28;20231;-85
2020/12/20 09:02:58;;;;;;;7.15;5.95;;;9.60;99.90;;;;;;5048137;28;20230;-86
2020/12/20 09:05:27;;;;;;;8.52;5.95;;;9.60;99.90;;;;;;5048699;28;20193;-86
2020/12/20 09:07:54;;;;;;;7.20;4.85;;;9.60;99.90;;;;;;5049411;28;20275;-84
2020/12/20 09:10:24;;;;;;;7.03;5.13;;;9.60;99.90;;;;;;5046749;28;20211;-86
2020/12/20 09:12:53;;;;;;;9.25;5.80;;;9.70;99.90;;;;;;5046999;28;20192;-85
2020/12/20 09:15:21;;;;;;;12.32;5.75;;;9.70;99.90;;;;;;5046708;28;20216;-84
2020/12/20 09:17:49;;;;;;;8.40;5.47;;;9.80;99.90;;;;;;5046244;28;20706;-85
2020/12/20 09:20:19;;;;;;;8.75;5.75;;;9.90;99.90;;;;;;5047813;28;20185;-85
2020/12/20 09:22:52;;;;;;;7.00;4.80;;;9.90;99.90;;;;;;5047506;28;20207;-85
2020/12/20 09:25:31;;;;;;;7.07;4.88;;;10.00;99.90;;;;;;5047270;28;20193;-84
2020/12/20 09:28:00;;;;;;;8.60;3.90;;;10.10;99.90;;;;;;5044917;28;20191;-85
2020/12/20 09:30:43;;;;;;;7.95;4.78;;;10.20;99.90;;;;;;5045651;28;20278;-84
2020/12/20 09:33:21;;;;;;;13.13;4.63;;;10.20;99.90;;;;;;5042067;28;20189;-87
2020/12/20 09:35:52;;;;;;;10.68;5.40;;;10.30;99.90;;;;;;5043104;28;20276;-84
2020/12/20 09:38:19;;;;;;;6.38;4.22;;;10.60;99.90;;;;;;5042735;28;20570;-86
2020/12/20 09:40:46;;;;;;;7.22;3.92;;;10.50;99.90;;;;;;5039236;28;20252;-85
2020/12/20 09:43:18;;;;;;;4.85;3.88;;;10.50;99.90;;;;;;5037821;28;20193;-85
2020/12/20 09:45:45;;;;;;;5.50;4.30;;;10.50;99.90;;;;;;5037558;28;20277;-83
2020/12/20 09:48:11;;;;;;;6.18;5.00;;;10.40;99.90;;;;;;5037616;28;20193;-84
2020/12/20 09:50:37;;;;;;;5.70;3.67;;;10.60;99.90;;;;;;5036160;28;20195;-84
2020/12/20 09:53:04;;;;;;;6.90;4.57;;;10.70;99.90;;;;;;5036147;28;20189;-84
2020/12/20 09:55:31;;;;;;;7.30;4.22;;;10.70;99.90;;;;;;5035680;28;20191;-84
2020/12/20 09:57:58;;;;;;;5.00;3.42;;;10.80;99.90;;;;;;5034829;28;20675;-86
2020/12/20 10:00:25;;;;;;;9.27;4.38;;;10.80;99.90;;;;;;5038948;28;20256;-84
2020/12/20 10:02:51;;;;;;;6.20;3.50;;;10.90;99.90;;;;;;5041921;28;20200;-84
2020/12/20 10:05:18;;;;;;;9.20;4.70;;;11.00;99.90;;;;;;5041696;28;20184;-85
2020/12/20 10:07:44;;;;;;;10.20;3.60;;;11.10;99.90;;;;;;5042322;28;20660;-85
2020/12/20 10:10:10;;;;;;;10.45;3.88;;;11.10;99.90;;;;;;5041475;28;20233;-85
2020/12/20 10:12:37;;;;;;;7.72;4.93;;;11.20;99.90;;;;;;5039983;28;20188;-84
2020/12/20 10:15:04;;;;;;;7.07;4.25;;;11.30;99.90;;;;;;5038148;28;20576;-84
2020/12/20 10:17:31;;;;;;;6.63;3.35;;;11.40;99.90;;;;;;5038131;28;20273;-83
2020/12/20 10:19:57;;;;;;;6.85;3.90;;;11.40;99.90;;;;;;5039149;28;20197;-84
2020/12/20 10:22:23;;;;;;;6.78;3.90;;;11.40;99.90;;;;;;5037236;28;20183;-85
2020/12/20 10:24:50;;;;;;;4.55;3.83;;;11.50;99.90;;;;;;5035442;28;20238;-85
2020/12/20 10:27:19;;;;;;;6.18;3.97;;;11.50;99.90;;;;;;5034134;28;20182;-85
2020/12/20 10:29:45;;;;;;;6.45;3.40;;;11.60;99.90;;;;;;5035488;28;20203;-85
2020/12/20 10:32:11;;;;;;;7.82;3.42;;;11.70;99.90;;;;;;5038063;28;20186;-85
2020/12/20 10:34:38;;;;;;;4.93;3.72;;;11.70;99.90;;;;;;5037231;28;20547;-84
2020/12/20 10:37:04;;;;;;;11.25;3.22;;;11.70;99.90;;;;;;5038004;28;20318;-85
2020/12/20 10:39:31;;;;;;;7.03;4.70;;;11.70;99.90;;;;;;5037780;28;20194;-84
2020/12/20 10:41:57;;;;;;;6.07;3.80;;;11.70;99.90;;;;;;5037409;28;20203;-86
2020/12/20 10:44:24;;;;;;;8.55;4.07;;;11.60;99.90;;;;;;5038056;28;20193;-86
2020/12/20 10:46:51;;;;;;;8.98;3.22;;;11.70;99.90;;;;;;5037376;28;20664;-88
2020/12/20 10:49:18;;;;;;;6.95;4.63;;;11.60;99.90;;;;;;5037923;28;20197;-87
2020/12/20 10:51:45;;;;;;;7.13;3.80;;;11.50;99.90;;;;;;5037362;28;20275;-85
2020/12/20 10:54:12;;;;;;;6.25;3.72;;;11.50;99.90;;;;;;5037361;28;20208;-86
2020/12/20 10:56:38;;;;;;;7.63;3.80;;;11.60;99.90;;;;;;5036052;28;20579;-86
2020/12/20 10:59:04;;;;;;;12.88;4.45;;;11.50;99.90;;;;;;5037080;28;20186;-86
2020/12/20 11:01:30;;;;;;;5.82;3.67;;;11.70;99.90;;;;;;5037000;28;20220;-87
2020/12/20 11:03:57;;;;;;;9.70;4.63;;;11.70;99.90;;;;;;5034005;28;20560;-86
2020/12/20 11:06:25;;;;;;;6.70;3.95;;;11.60;99.90;;;;;;5036184;28;20195;-86
2020/12/20 11:08:52;;;;;;;7.38;4.75;;;11.50;99.90;;;;;;5035336;28;20258;-87
2020/12/20 11:11:19;;;;;;;6.80;4.30;;;11.60;99.90;;;;;;5036454;28;20664;-88
2020/12/20 11:13:46;;;;;;;7.03;4.57;;;11.60;99.90;;;;;;5036420;28;20684;-86
2020/12/20 11:16:14;;;;;;;7.70;4.63;;;11.40;99.90;;;;;;5037921;28;20219;-84
2020/12/20 11:18:41;;;;;;;7.18;4.35;;;11.60;99.90;;;;;;5031242;28;20272;-84
2020/12/20 11:21:09;;;;;;;6.55;3.78;;;11.60;99.90;;;;;;5036882;28;20238;-85
2020/12/20 11:23:36;;;;;;;7.65;4.47;;;11.60;99.90;;;;;;5036254;28;20192;-85
2020/12/20 11:26:08;;;;;;;8.50;4.10;;;11.70;99.90;;;;;;5036314;28;20184;-87
2020/12/20 11:28:34;;;;;;;4.65;3.42;;;11.80;99.90;;;;;;5036247;28;20182;-85
2020/12/20 11:31:00;;;;;;;6.97;4.30;;;11.70;99.90;;;;;;5036299;28;20250;-85
2020/12/20 11:33:27;;;;;;;7.35;4.93;;;11.80;99.90;;;;;;5035706;28;20188;-86
2020/12/20 11:35:53;;;;;;;6.43;3.70;;;11.70;99.90;;;;;;5036097;28;20228;-86
2020/12/20 11:38:19;;;;;;;9.05;4.70;;;11.80;99.90;;;;;;5035869;28;20216;-87
2020/12/20 11:40:46;;;;;;;6.85;4.50;;;11.70;99.90;;;;;;5035510;28;20193;-85
2020/12/20 11:43:13;;;;;;;5.40;4.00;;;11.80;99.90;;;;;;5036347;28;20178;-85
2020/12/20 11:45:39;;;;;;;7.63;4.57;;;11.80;99.90;;;;;;5036713;28;20587;-86
2020/12/20 11:48:06;;;;;;;11.68;4.60;;;11.80;99.90;;;;;;5035896;28;20196;-86
2020/12/20 11:50:32;;;;;;;4.80;3.30;;;11.80;99.90;;;;;;5036697;28;20190;-85
2020/12/20 11:52:58;;;;;;;15.38;5.00;;;11.90;99.90;;;;;;5036031;28;20201;-86
2020/12/20 11:55:24;;;;;;;8.35;4.72;;;11.80;99.90;;;;;;5036387;28;20193;-86
2020/12/20 11:57:51;;;;;;;8.40;4.55;;;11.70;99.90;;;;;;5035370;28;20293;-86
2020/12/20 12:00:18;;;;;;;9.45;3.88;;;11.80;99.90;;;;;;5036615;28;20188;-86
2020/12/20 12:02:44;;;;;;;5.78;3.55;;;11.90;99.90;;;;;;5038556;28;20186;-86
2020/12/20 12:05:11;;;;;;;6.78;3.65;;;11.90;99.90;;;;;;5038919;28;20183;-87
2020/12/20 12:07:37;;;;;;;8.30;4.70;;;11.90;99.90;;;;;;5039030;28;20195;-87
2020/12/20 12:10:03;;;;;;;6.22;3.35;;;12.00;99.90;;;;;;5037637;28;20189;-86
2020/12/20 12:12:30;;;;;;;5.30;3.97;;;12.00;99.90;;;;;;5037567;28;20186;-88
2020/12/20 12:14:56;;;;;;;7.53;4.82;;;12.10;99.90;;;;;;5037955;28;20231;-86
2020/12/20 12:17:24;;;;;;;6.05;3.53;;;12.00;99.90;;;;;;5035825;28;20579;-87
2020/12/20 12:19:52;;;;;;;6.00;3.45;;;12.00;99.90;;;;;;5035890;28;20199;-86
2020/12/20 12:22:18;;;;;;;5.65;3.50;;;11.90;99.90;;;;;;5035190;28;20182;-86
2020/12/20 12:24:44;;;;;;;11.07;4.05;;;11.90;99.90;;;;;;5035912;28;20526;-86
2020/12/20 12:27:11;;;;;;;8.80;3.65;;;11.90;99.90;;;;;;5035189;28;20201;-86
2020/12/20 12:29:43;;;;;;;7.03;3.05;;;11.80;99.90;;;;;;5035630;28;20186;-86
2020/12/20 12:32:09;;;;;;;8.23;4.07;;;11.70;99.90;;;;;;5039496;28;20209;-86
2020/12/20 12:34:36;;;;;;;7.28;3.20;;;11.70;99.90;;;;;;5034999;28;20247;-86
2020/12/20 12:37:05;;;;;;;6.55;3.17;;;11.70;99.90;;;;;;5036054;28;20217;-85
2020/12/20 12:39:31;;;;;;;7.65;3.42;;;11.70;99.90;;;;;;5035345;28;20268;-86
2020/12/20 12:42:03;;;;;;;6.72;3.50;;;11.70;99.90;;;;;;5035996;28;20189;-86
2020/12/20 12:44:29;;;;;;;16.60;5.05;;;11.70;99.90;;;;;;5026560;28;20238;-85
2020/12/20 12:46:56;;;;;;;6.85;3.90;;;11.70;99.90;;;;;;5023304;28;20284;-88
2020/12/20 12:49:22;;;;;;;6.47;3.25;;;11.70;99.90;;;;;;5035095;28;20684;-85
2020/12/20 12:51:49;;;;;;;7.45;3.10;;;11.70;99.90;;;;;;5034695;28;20196;-85
2020/12/20 12:54:16;;;;;;;7.43;4.10;;;11.70;99.90;;;;;;5034731;28;20186;-86